Time;durP1;ratioP1;P1;durP2;ratioP2;P2;SDS_P1;SDS_P2;PMS_P1;PMS_P2;Temp;Humidity;BMP_temperature;BMP_pressure;BME280_temperature;BME280_humidity;BME280_pressure;Samples;Min_cycle;Max_cycle;Signal;HPM_P1;HPM_P2
2021/11/01 00:01:44;;;;;;;18.30;3.60;;;;;;;;;;5054119;28;20063;-64
2021/11/01 00:04:10;;;;;;;19.13;3.28;;;;;;;;;;5054109;28;20080;-64
2021/11/01 00:06:36;;;;;;;23.63;4.10;;;;;;;;;;5054073;28;20499;-65
2021/11/01 00:09:03;;;;;;;28.50;4.72;;;;;;;;;;5054042;28;20108;-65
2021/11/01 00:11:29;;;;;;;24.00;4.78;;;;;;;;;;5053980;28;20025;-65
2021/11/01 00:13:55;;;;;;;28.60;4.57;;;;;;;;;;5054125;28;20029;-65
2021/11/01 00:16:21;;;;;;;20.75;4.65;;;;;;;;;;5053896;28;20489;-65
2021/11/01 00:18:47;;;;;;;23.92;4.88;;;;;;;;;;5053832;28;20029;-65
2021/11/01 00:21:14;;;;;;;24.55;4.95;;;;;;;;;;5053642;28;20029;-65
2021/11/01 00:23:40;;;;;;;24.48;5.47;;;;;;;;;;5052683;28;20418;-64
2021/11/01 00:26:06;;;;;;;23.15;5.38;;;;;;;;;;5053792;28;20067;-65
2021/11/01 00:28:32;;;;;;;13.95;4.07;;;;;;;;;;5053753;28;20467;-65
2021/11/01 00:30:58;;;;;;;32.75;5.40;;;;;;;;;;5053702;28;20070;-65
2021/11/01 00:33:25;;;;;;;20.55;5.18;;;;;;;;;;5053597;28;20052;-66
2021/11/01 00:35:51;;;;;;;21.77;5.63;;;;;;;;;;5053669;28;20032;-65
2021/11/01 00:38:17;;;;;;;27.58;4.82;;;;;;;;;;5053536;28;20049;-65
2021/11/01 00:40:43;;;;;;;25.75;4.88;;;;;;;;;;5053623;28;20536;-65
2021/11/01 00:43:09;;;;;;;20.52;4.50;;;;;;;;;;5053617;28;20025;-65
2021/11/01 00:45:36;;;;;;;24.45;4.93;;;;;;;;;;5051957;28;20078;-65
2021/11/01 00:48:02;;;;;;;18.98;3.78;;;;;;;;;;5054090;28;20048;-65
2021/11/01 00:50:28;;;;;;;16.90;4.20;;;;;;;;;;5051983;28;20492;-65
2021/11/01 00:52:55;;;;;;;23.98;4.68;;;;;;;;;;5053515;28;20044;-65
2021/11/01 00:55:25;;;;;;;17.60;4.45;;;;;;;;;;5053496;28;20366;-65
2021/11/01 00:57:51;;;;;;;28.52;6.22;;;;;;;;;;5053502;28;20102;-65
2021/11/01 01:00:17;;;;;;;18.10;4.30;;;;;;;;;;5053406;28;20048;-65
2021/11/01 01:02:44;;;;;;;25.60;5.30;;;;;;;;;;5052290;28;20025;-65
2021/11/01 01:05:10;;;;;;;18.55;4.75;;;;;;;;;;5053448;28;20025;-65
2021/11/01 01:07:36;;;;;;;19.08;4.07;;;;;;;;;;5053425;28;20021;-65
2021/11/01 01:10:03;;;;;;;18.50;5.10;;;;;;;;;;5053395;28;20116;-65
2021/11/01 01:12:29;;;;;;;23.13;4.85;;;;;;;;;;5053294;28;20021;-65
2021/11/01 01:14:58;;;;;;;23.63;5.25;;;;;;;;;;5053329;28;20471;-65
2021/11/01 01:17:25;;;;;;;18.73;4.75;;;;;;;;;;5053790;28;20482;-65
2021/11/01 01:19:58;;;;;;;22.67;4.53;;;;;;;;;;5053185;28;20423;-65
2021/11/01 01:22:31;;;;;;;27.27;4.47;;;;;;;;;;5053227;28;20421;-65
2021/11/01 01:25:00;;;;;;;;;;;;;;;;;;5053642;28;20018;-65
2021/11/01 01:27:27;;;;;;;19.10;4.78;;;;;;;;;;5053532;28;19904;-65
2021/11/01 01:29:53;;;;;;;23.08;4.90;;;;;;;;;;5053174;28;20052;-65
2021/11/01 01:32:19;;;;;;;18.50;4.60;;;;;;;;;;5053435;28;20087;-65
2021/11/01 01:34:45;;;;;;;23.60;3.97;;;;;;;;;;5053118;28;20036;-65
2021/11/01 01:37:12;;;;;;;15.98;3.60;;;;;;;;;;5053109;28;20029;-65
2021/11/01 01:39:38;;;;;;;22.13;4.50;;;;;;;;;;5052645;28;20124;-65
2021/11/01 01:42:04;;;;;;;20.50;4.15;;;;;;;;;;5053107;28;20107;-65
2021/11/01 01:44:30;;;;;;;20.95;4.80;;;;;;;;;;5053071;28;20029;-64
2021/11/01 01:46:56;;;;;;;16.70;4.05;;;;;;;;;;5055320;28;20047;-65
2021/11/01 01:49:22;;;;;;;17.15;3.80;;;;;;;;;;5056654;28;20025;-65
2021/11/01 01:51:48;;;;;;;21.17;3.83;;;;;;;;;;5056617;28;20032;-66
2021/11/01 01:54:14;;;;;;;17.08;4.15;;;;;;;;;;5056849;28;20036;-65
2021/11/01 01:56:40;;;;;;;18.10;4.20;;;;;;;;;;5056798;28;20501;-65
2021/11/01 01:59:07;;;;;;;23.10;5.03;;;;;;;;;;5056459;28;20017;-65
2021/11/01 02:01:33;;;;;;;21.35;4.05;;;;;;;;;;5056438;28;20482;-64
2021/11/01 02:04:00;;;;;;;18.05;4.10;;;;;;;;;;5056393;28;20033;-65
2021/11/01 02:06:32;;;;;;;20.80;3.60;;;;;;;;;;5056332;28;20055;-64
2021/11/01 02:09:03;;;;;;;15.45;3.90;;;;;;;;;;5055032;28;20029;-65
2021/11/01 02:11:32;;;;;;;15.82;3.47;;;;;;;;;;5056227;28;20467;-65
2021/11/01 02:14:00;;;;;;;17.83;4.00;;;;;;;;;;5056209;28;20033;-65
2021/11/01 02:16:30;;;;;;;20.00;4.13;;;;;;;;;;5056167;28;20025;-65
2021/11/01 02:18:56;;;;;;;18.98;4.05;;;;;;;;;;5056032;28;20467;-66
2021/11/01 02:21:31;;;;;;;15.13;3.47;;;;;;;;;;5056086;28;20052;-65
2021/11/01 02:24:16;;;;;;;19.00;3.28;;;;;;;;;;5056030;28;20021;-65
2021/11/01 02:26:43;;;;;;;16.85;3.55;;;;;;;;;;5055637;28;20048;-65
2021/11/01 02:29:10;;;;;;;13.73;3.40;;;;;;;;;;5055957;28;20040;-65
2021/11/01 02:31:36;;;;;;;15.68;3.40;;;;;;;;;;5055848;28;20025;-65
2021/11/01 02:34:02;;;;;;;12.98;3.05;;;;;;;;;;5055805;28;20021;-65
2021/11/01 02:36:29;;;;;;;22.13;3.25;;;;;;;;;;5055820;28;20040;-65
2021/11/01 02:38:57;;;;;;;17.98;3.72;;;;;;;;;;5055308;28;20059;-66
2021/11/01 02:41:25;;;;;;;20.42;3.92;;;;;;;;;;5055654;28;20020;-65
2021/11/01 02:43:53;;;;;;;17.42;3.55;;;;;;;;;;5054487;28;20029;-65
2021/11/01 02:46:19;;;;;;;23.30;3.80;;;;;;;;;;5055644;28;20066;-65
2021/11/01 02:48:46;;;;;;;18.63;3.80;;;;;;;;;;5055597;28;20486;-65
2021/11/01 02:51:12;;;;;;;21.35;3.92;;;;;;;;;;5055532;28;20025;-65
2021/11/01 02:53:38;;;;;;;14.52;3.20;;;;;;;;;;5055735;28;20032;-65
2021/11/01 02:56:07;;;;;;;18.05;3.03;;;;;;;;;;5055402;28;20079;-65
2021/11/01 02:58:34;;;;;;;17.80;4.20;;;;;;;;;;5055272;28;20028;-65
2021/11/01 03:01:00;;;;;;;19.30;4.22;;;;;;;;;;5055344;28;20382;-65
2021/11/01 03:03:26;;;;;;;26.80;3.67;;;;;;;;;;5055286;28;20033;-65
2021/11/01 03:05:52;;;;;;;18.23;3.67;;;;;;;;;;5055227;28;20021;-65
2021/11/01 03:08:18;;;;;;;13.00;2.90;;;;;;;;;;5055223;28;20021;-65
2021/11/01 03:10:44;;;;;;;18.65;3.83;;;;;;;;;;5055100;28;20025;-65
2021/11/01 03:13:10;;;;;;;22.52;3.20;;;;;;;;;;5055111;28;20021;-66
2021/11/01 03:15:36;;;;;;;14.82;3.42;;;;;;;;;;5055044;28;20090;-66
2021/11/01 03:18:04;;;;;;;20.48;4.07;;;;;;;;;;5054896;28;20442;-65
2021/11/01 03:20:31;;;;;;;14.65;3.92;;;;;;;;;;5054938;28;20086;-66
2021/11/01 03:23:01;;;;;;;14.82;3.08;;;;;;;;;;5054873;28;20044;-65
2021/11/01 03:25:32;;;;;;;10.80;3.50;;;;;;;;;;5055366;28;20044;-67
2021/11/01 03:28:01;;;;;;;15.32;3.60;;;;;;;;;;5054834;28;20040;-66
2021/11/01 03:30:27;;;;;;;13.57;3.40;;;;;;;;;;5055021;28;20095;-66
2021/11/01 03:32:53;;;;;;;21.30;3.50;;;;;;;;;;5054712;28;20031;-65
2021/11/01 03:35:21;;;;;;;10.27;2.85;;;;;;;;;;5054691;28;20033;-65
2021/11/01 03:37:51;;;;;;;11.95;2.88;;;;;;;;;;5054358;28;20025;-65
2021/11/01 03:40:19;;;;;;;17.02;3.25;;;;;;;;;;5054483;28;20021;-65
2021/11/01 03:42:46;;;;;;;12.95;2.65;;;;;;;;;;5054494;28;20025;-66
2021/11/01 03:45:13;;;;;;;19.77;2.95;;;;;;;;;;5054485;28;20032;-66
2021/11/01 03:47:41;;;;;;;18.95;3.83;;;;;;;;;;5054403;28;20020;-65
2021/11/01 03:50:20;;;;;;;13.20;2.78;;;;;;;;;;5054386;28;20032;-65
2021/11/01 03:52:48;;;;;;;11.45;2.95;;;;;;;;;;5054914;28;20025;-65
2021/11/01 03:55:14;;;;;;;12.30;3.40;;;;;;;;;;5054318;28;20110;-65
2021/11/01 03:57:41;;;;;;;12.77;3.40;;;;;;;;;;5054272;28;20028;-66
2021/11/01 04:00:07;;;;;;;20.40;3.85;;;;;;;;;;5054148;28;20095;-66
2021/11/01 04:02:33;;;;;;;14.93;3.30;;;;;;;;;;5054171;28;20024;-66
2021/11/01 04:05:01;;;;;;;15.75;3.08;;;;;;;;;;5054164;28;20431;-66
2021/11/01 04:07:28;;;;;;;15.77;2.97;;;;;;;;;;5052959;28;20017;-66
2021/11/01 04:09:54;;;;;;;10.75;2.67;;;;;;;;;;5053664;28;20475;-65
2021/11/01 04:12:21;;;;;;;15.95;2.85;;;;;;;;;;5054024;28;20458;-65
2021/11/01 04:14:50;;;;;;;13.05;3.00;;;;;;;;;;5054013;28;20052;-66
2021/11/01 04:17:24;;;;;;;12.70;2.83;;;;;;;;;;5053960;28;20071;-66
2021/11/01 04:20:05;;;;;;;14.25;3.00;;;;;;;;;;5053829;28;20033;-66
2021/11/01 04:22:32;;;;;;;25.30;3.33;;;;;;;;;;5053887;28;20108;-66
2021/11/01 04:24:59;;;;;;;22.33;3.58;;;;;;;;;;5053844;28;20017;-66
2021/11/01 04:27:25;;;;;;;15.02;2.53;;;;;;;;;;5052310;28;20029;-66
2021/11/01 04:29:51;;;;;;;16.85;2.70;;;;;;;;;;5052617;28;20028;-65
2021/11/01 04:32:24;;;;;;;9.98;2.63;;;;;;;;;;5053764;28;20056;-66
2021/11/01 04:34:58;;;;;;;15.85;2.53;;;;;;;;;;5052995;28;20458;-65
2021/11/01 04:37:24;;;;;;;7.65;2.63;;;;;;;;;;5053708;28;20048;-66
2021/11/01 04:40:04;;;;;;;13.50;2.72;;;;;;;;;;5053241;28;20509;-66
2021/11/01 04:53:32;;;;;;;14.52;2.88;;;;;;;;;;5090802;28;20059;-65
2021/11/01 04:55:58;;;;;;;10.65;2.13;;;;;;;;;;5091134;28;20024;-65
2021/11/01 04:58:24;;;;;;;14.77;2.60;;;;;;;;;;5091122;28;20036;-64
2021/11/01 05:00:51;;;;;;;11.77;2.72;;;;;;;;;;5091071;28;20107;-65
2021/11/01 05:05:50;;;;;;;9.73;2.28;;;;;;;;;;5090979;28;20021;-64
2021/11/01 05:08:18;;;;;;;13.23;2.58;;;;;;;;;;5090927;28;20016;-64
2021/11/01 05:10:48;;;;;;;12.32;2.70;;;;;;;;;;5089387;28;20119;-66
2021/11/01 05:13:18;;;;;;;17.33;3.05;;;;;;;;;;5089334;28;20474;-67
2021/11/01 05:15:50;;;;;;;5.40;1.92;;;;;;;;;;5090811;28;20032;-65
2021/11/01 05:19:00;;;;;;;12.73;2.45;;;;;;;;;;5090728;28;20493;-66
2021/11/01 05:23:41;;;;;;;10.32;2.65;;;;;;;;;;5090243;28;20039;-66
2021/11/01 05:26:16;;;;;;;12.50;3.08;;;;;;;;;;5090613;28;20032;-66
2021/11/01 05:28:47;;;;;;;8.82;2.25;;;;;;;;;;5090574;28;20054;-66
2021/11/01 05:31:24;;;;;;;13.00;3.03;;;;;;;;;;5090501;28;20020;-66
2021/11/01 05:34:10;;;;;;;12.68;2.70;;;;;;;;;;5090444;28;20420;-66
2021/11/01 05:36:36;;;;;;;19.00;3.33;;;;;;;;;;5088869;28;20028;-66
2021/11/01 05:39:02;;;;;;;11.60;2.72;;;;;;;;;;5090622;28;20527;-67
2021/11/01 05:41:28;;;;;;;11.02;2.63;;;;;;;;;;5090318;28;20107;-66
2021/11/01 05:43:54;;;;;;;14.98;2.28;;;;;;;;;;5089810;28;20446;-66
2021/11/01 05:46:20;;;;;;;9.43;2.35;;;;;;;;;;5090497;28;20024;-66
2021/11/01 05:48:50;;;;;;;13.93;2.50;;;;;;;;;;5090159;28;20480;-66
2021/11/01 05:51:18;;;;;;;11.02;3.15;;;;;;;;;;5090109;28;20013;-66
2021/11/01 05:53:47;;;;;;;13.15;3.38;;;;;;;;;;5090079;28;20489;-66
2021/11/01 05:56:25;;;;;;;12.88;3.00;;;;;;;;;;5077037;28;20033;-66
2021/11/01 05:59:05;;;;;;;8.73;2.88;;;;;;;;;;5076460;28;20082;-66
2021/11/01 06:01:42;;;;;;;12.40;3.20;;;;;;;;;;5076429;28;20058;-65
2021/11/01 06:04:18;;;;;;;11.73;2.30;;;;;;;;;;5076333;28;20033;-67
2021/11/01 06:09:47;;;;;;;13.85;3.17;;;;;;;;;;5075844;28;20025;-66
2021/11/01 06:14:59;;;;;;;9.57;2.33;;;;;;;;;;5075729;28;20106;-67
2021/11/01 06:17:25;;;;;;;11.55;2.50;;;;;;;;;;5075015;28;20106;-66
2021/11/01 06:19:51;;;;;;;14.80;2.38;;;;;;;;;;5076106;28;20466;-66
2021/11/01 06:22:17;;;;;;;5.60;1.92;;;;;;;;;;5076064;28;20024;-66
2021/11/01 06:24:49;;;;;;;11.05;2.17;;;;;;;;;;5075934;28;20086;-66
2021/11/01 06:27:16;;;;;;;11.75;2.33;;;;;;;;;;5075968;28;20096;-66
2021/11/01 06:40:53;;;;;;;7.47;2.22;;;;;;;;;;5131716;28;20448;-66
2021/11/01 06:54:21;;;;;;;13.63;3.25;;;;;;;;;;5071660;28;20403;-64
2021/11/01 06:57:10;;;;;;;8.27;1.98;;;;;;;;;;5071427;28;20520;-66
2021/11/01 07:16:16;;;;;;;8.45;2.10;;;;;;;;;;5070277;28;20116;-67
2021/11/01 07:24:17;;;;;;;12.07;2.42;;;;;;;;;;5070271;28;20031;-66
2021/11/01 08:25:41;;;;;;;6.45;1.85;;;14.10;99.90;;;;;;5055726;28;20401;-65
2021/11/01 08:28:12;;;;;;;11.63;1.65;;;;;;;;;;5055674;28;20025;-66
2021/11/01 08:34:17;;;;;;;6.80;1.80;;;14.10;99.90;;;;;;5055644;28;20159;-65
2021/11/01 08:36:06;;;;;;;7.22;2.05;;;14.00;99.90;;;;;;5055818;28;20186;-66
2021/11/01 08:39:20;;;;;;;9.15;1.73;;;14.50;99.90;;;;;;5056231;28;20017;-66
2021/11/01 08:41:45;;;;;;;7.63;1.90;;;14.50;99.90;;;;;;5055427;28;20036;-66
2021/11/01 09:01:19;;;;;;;6.90;1.35;;;14.50;99.90;;;;;;5055008;28;20507;-66
2021/11/01 09:03:50;;;;;;;7.88;1.75;;;15.30;99.90;;;;;;5054007;28;20087;-66
2021/11/01 09:06:29;;;;;;;10.23;1.85;;;15.10;99.90;;;;;;5055017;28;20036;-65
2021/11/01 09:09:55;;;;;;;9.68;2.00;;;14.70;99.90;;;;;;5055916;28;20017;-66
2021/11/01 09:18:45;;;;;;;9.73;1.90;;;;;;;;;;5053817;28;20417;-66
2021/11/01 09:25:39;;;;;;;10.80;1.85;;;;;;;;;;5111210;28;20051;-66
2021/11/01 09:28:49;;;;;;;7.22;1.92;;;;;;;;;;5111590;28;20020;-64
2021/11/01 09:36:35;;;;;;;7.85;2.28;;;;;;;;;;5111020;28;20032;-66
2021/11/01 09:39:18;;;;;;;11.38;2.13;;;;;;;;;;5110360;28;20027;-65
2021/11/01 09:41:44;;;;;;;8.40;2.17;;;;;;;;;;5111320;28;20103;-66
2021/11/01 09:44:14;;;;;;;8.65;2.50;;;;;;;;;;5111363;28;20028;-67
2021/11/01 09:46:40;;;;;;;7.00;2.15;;;;;;;;;;5109739;28;20023;-66
2021/11/01 09:49:14;;;;;;;8.23;1.67;;;;;;;;;;5109658;28;20024;-65
2021/11/01 09:51:41;;;;;;;6.38;2.38;;;;;;;;;;5111199;28;20024;-66
2021/11/01 09:54:09;;;;;;;8.25;2.22;;;;;;;;;;5111138;28;20066;-66
2021/11/01 09:56:48;;;;;;;9.40;1.90;;;;;;;;;;5111098;28;20509;-66
2021/11/01 09:59:15;;;;;;;6.43;2.42;;;;;;;;;;5109991;28;20031;-66
2021/11/01 10:01:43;;;;;;;8.93;2.80;;;;;;;;;;5111216;28;20055;-67
2021/11/01 10:04:26;;;;;;;9.50;1.70;;;;;;;;;;5110972;28;20108;-66
2021/11/01 10:07:10;;;;;;;9.23;2.50;;;14.10;99.90;;;;;;5110927;28;20027;-67
2021/11/01 10:09:41;;;;;;;7.47;2.03;;;14.00;99.90;;;;;;5109814;28;20024;-66
2021/11/01 10:12:17;;;;;;;9.10;2.20;;;14.50;99.90;;;;;;5092793;28;20113;-66
2021/11/01 10:14:46;;;;;;;6.63;2.05;;;;;;;;;;5109199;28;20023;-66
2021/11/01 10:17:42;;;;;;;6.57;2.25;;;;;;;;;;5109571;28;20024;-67
2021/11/01 10:19:59;;;;;;;5.47;2.03;;;13.90;99.90;;;;;;5110301;28;20036;-66
2021/11/01 10:22:33;;;;;;;11.85;2.80;;;14.10;99.90;;;;;;5110076;28;20111;-66
2021/11/01 10:25:00;;;;;;;10.10;2.00;;;;;;;;;;5110831;28;20027;-66
2021/11/01 10:27:36;;;;;;;8.50;2.30;;;14.00;99.90;;;;;;5110209;28;20500;-66
2021/11/01 10:30:09;;;;;;;7.35;2.28;;;13.90;99.90;;;;;;5110479;28;20091;-65
2021/11/01 10:32:38;;;;;;;;;;;14.00;99.90;;;;;;5105601;28;20024;-66
2021/11/01 10:35:11;;;;;;;8.57;2.03;;;14.60;99.90;;;;;;5078516;28;19910;-66
2021/11/01 10:37:37;;;;;;;8.77;1.65;;;14.30;99.90;;;;;;5097038;28;20034;-66
2021/11/01 10:40:08;;;;;;;9.98;1.98;;;14.20;99.90;;;;;;5095787;28;20044;-66
2021/11/01 10:42:43;;;;;;;6.45;1.73;;;14.20;99.90;;;;;;5096286;28;20469;-66
2021/11/01 10:45:27;;;;;;;10.40;2.10;;;14.40;99.90;;;;;;5095590;28;20052;-66
2021/11/01 10:57:15;;;;;;;9.20;2.17;;;14.80;99.90;;;;;;5095949;28;20119;-66
2021/11/01 11:10:48;;;;;;;6.70;1.77;;;14.60;99.90;;;;;;5095851;28;20049;-66
2021/11/01 11:13:02;;;;;;;4.63;1.65;;;14.40;99.90;;;;;;5095599;28;20103;-65
2021/11/01 11:15:29;;;;;;;5.32;1.90;;;14.40;99.90;;;;;;5096129;28;20024;-66
2021/11/01 11:26:18;;;;;;;7.00;2.08;;;14.80;99.90;;;;;;5111328;28;20166;-65
2021/11/01 11:29:17;;;;;;;7.07;1.77;;;14.80;99.90;;;;;;5110900;28;20048;-66
2021/11/01 11:32:50;;;;;;;5.10;1.52;;;14.70;99.90;;;;;;5111206;28;20481;-66
2021/11/01 11:40:46;;;;;;;7.65;1.90;;;14.90;99.90;;;;;;5110021;28;20477;-65
2021/11/01 11:43:30;;;;;;;7.43;1.88;;;15.20;99.90;;;;;;5111707;28;20469;-65
2021/11/01 11:49:17;;;;;;;;;;;14.80;99.90;;;;;;5110389;28;20027;-66
2021/11/01 11:52:04;;;;;;;7.07;1.52;;;15.20;99.90;;;;;;5111020;28;20007;-65
2021/11/01 11:54:32;;;;;;;4.80;1.80;;;;;;;;;;5111420;28;20047;-64
2021/11/01 11:57:03;;;;;;;4.38;1.85;;;14.20;99.90;;;;;;5110239;28;20024;-64
2021/11/01 11:59:34;;;;;;;7.53;1.77;;;14.30;99.90;;;;;;5111358;28;20020;-65
2021/11/01 12:02:09;;;;;;;8.50;2.28;;;14.40;99.90;;;;;;5109761;28;20108;-66
2021/11/01 12:04:39;;;;;;;5.35;1.45;;;14.60;99.90;;;;;;5110965;28;20027;-65
2021/11/01 12:07:07;;;;;;;3.47;1.48;;;14.70;99.90;;;;;;5110947;28;20027;-66
2021/11/01 12:09:44;;;;;;;5.45;1.30;;;14.60;99.90;;;;;;5109762;28;20031;-65
2021/11/01 12:12:34;;;;;;;4.97;1.38;;;14.30;99.90;;;;;;5109510;28;20103;-65
2021/11/01 12:17:48;;;;;;;7.47;1.40;;;14.70;99.90;;;;;;5109388;28;20028;-65
2021/11/01 12:20:14;;;;;;;6.70;1.20;;;14.90;99.90;;;;;;5110810;28;20051;-65
2021/11/01 12:22:43;;;;;;;5.43;1.75;;;14.70;99.90;;;;;;5109046;28;20087;-65
2021/11/01 12:25:13;;;;;;;9.85;1.52;;;14.90;99.90;;;;;;5092601;28;20020;-65
2021/11/01 12:27:43;;;;;;;3.50;1.55;;;;;;;;;;5110671;28;20024;-65
2021/11/01 12:30:11;;;;;;;4.05;1.48;;;14.40;99.90;;;;;;5110664;28;20423;-64
2021/11/01 12:32:38;;;;;;;5.80;1.30;;;14.20;99.90;;;;;;5108188;28;20024;-65
2021/11/01 12:35:12;;;;;;;5.22;1.65;;;;;;;;;;5095776;28;20024;-66
2021/11/01 12:37:46;;;;;;;6.30;1.48;;;14.50;99.90;;;;;;5096047;28;20024;-65
2021/11/01 12:40:36;;;;;;;4.97;1.80;;;14.50;99.90;;;;;;5097164;28;20586;-65
2021/11/01 12:43:11;;;;;;;3.03;1.20;;;14.70;99.90;;;;;;5096360;28;20024;-66
2021/11/01 12:57:01;;;;;;;4.40;1.23;;;14.50;99.90;;;;;;5095938;28;20093;-65
2021/11/01 12:59:35;;;;;;;4.60;1.02;;;;;;;;;;5094896;28;20024;-66
2021/11/01 13:02:01;;;;;;;3.75;1.02;;;14.60;99.90;;;;;;5095034;28;20028;-65
2021/11/01 13:04:35;;;;;;;5.05;1.15;;;14.60;99.90;;;;;;5096489;28;20040;-65
2021/11/01 13:07:06;;;;;;;3.20;1.50;;;14.70;99.90;;;;;;5096477;28;20023;-65
2021/11/01 13:09:38;;;;;;;3.45;1.00;;;14.60;99.90;;;;;;5096070;28;20388;-66
2021/11/01 13:12:22;;;;;;;5.93;1.10;;;14.70;99.90;;;;;;5096393;28;20024;-66
2021/11/01 13:20:23;;;;;;;6.55;1.20;;;15.00;99.90;;;;;;5095472;28;20080;-65
2021/11/01 13:22:54;;;;;;;5.22;1.30;;;15.10;99.90;;;;;;5095287;28;20047;-66
2021/11/01 13:25:26;;;;;;;6.43;1.45;;;15.00;99.90;;;;;;5094239;28;20469;-65
2021/11/01 13:36:25;;;;;;;4.72;1.10;;;;;;;;;;5070625;28;20045;-68
2021/11/01 13:38:53;;;;;;;4.60;1.08;;;;;;;;;;5071012;28;20474;-68
2021/11/01 13:41:27;;;;;;;3.03;1.15;;;;;;;;;;5070957;28;20059;-66
2021/11/01 13:43:53;;;;;;;3.35;1.02;;;;;;;;;;5070881;28;20103;-65
2021/11/01 13:46:26;;;;;;;2.92;1.00;;;;;;;;;;5070809;28;20028;-66
2021/11/01 13:48:57;;;;;;;3.17;1.25;;;;;;;;;;5069126;28;20481;-66
2021/11/01 13:51:23;;;;;;;4.55;1.30;;;;;;;;;;5069980;28;20374;-66
2021/11/01 13:53:59;;;;;;;2.90;0.80;;;;;;;;;;5070731;28;20017;-66
2021/11/01 13:56:29;;;;;;;6.35;1.35;;;;;;;;;;5070630;28;20013;-66
2021/11/01 13:59:01;;;;;;;4.97;1.13;;;;;;;;;;5070574;28;20023;-66
2021/11/01 14:12:41;;;;;;;4.63;1.00;;;;;;;;;;5069839;28;20497;-66
2021/11/01 14:15:14;;;;;;;4.25;1.30;;;;;;;;;;5070296;28;20063;-66
2021/11/01 14:18:08;;;;;;;4.03;1.05;;;;;;;;;;5070242;28;20020;-67
2021/11/01 14:20:43;;;;;;;4.25;1.08;;;;;;;;;;5069736;28;20571;-66
2021/11/01 14:29:01;;;;;;;7.03;1.83;;;;;;;;;;5069294;28;20041;-66
2021/11/01 14:34:47;;;;;;;3.53;0.95;;;;;;;;;;5069383;28;20029;-66
2021/11/01 14:57:06;;;;;;;4.10;1.40;;;;;;;;;;5055823;28;20021;-65
2021/11/01 14:59:29;;;;;;;5.57;1.17;;;;;;;;;;5055758;28;20036;-66
2021/11/01 15:02:47;;;;;;;7.68;1.30;;;;;;;;;;5055613;28;20039;-66
2021/11/01 15:08:26;;;;;;;7.88;1.20;;;;;;;;;;5055568;28;20363;-66
2021/11/01 15:10:55;;;;;;;3.67;1.30;;;;;;;;;;5055445;28;20494;-66
2021/11/01 15:13:24;;;;;;;7.13;1.55;;;;;;;;;;5055507;28;20033;-66
2021/11/01 15:18:36;;;;;;;4.55;1.52;;;;;;;;;;5055412;28;20036;-65
2021/11/01 15:21:10;;;;;;;3.88;1.60;;;;;;;;;;5055784;28;20104;-66
2021/11/01 15:27:19;;;;;;;4.40;1.95;;;;;;;;;;5112193;27;20355;-66
2021/11/01 15:32:32;;;;;;;4.72;1.25;;;;;;;;;;5111183;28;20024;-65
2021/11/01 15:35:14;;;;;;;5.40;1.45;;;;;;;;;;5111165;28;20028;-65
2021/11/01 16:19:06;;;;;;;5.85;1.60;;;;;;;;;;5110301;28;20028;-65
2021/11/01 16:21:33;;;;;;;3.40;1.20;;;;;;;;;;5110675;28;20016;-66
2021/11/01 16:23:59;;;;;;;3.90;1.63;;;;;;;;;;5110635;28;20072;-66
2021/11/01 16:26:26;;;;;;;5.40;1.35;;;;;;;;;;5110100;28;20400;-65
2021/11/01 16:28:58;;;;;;;4.78;1.38;;;;;;;;;;5110559;28;20016;-65
2021/11/01 16:32:02;;;;;;;5.95;1.52;;;;;;;;;;5110498;28;20020;-66
2021/11/01 16:34:17;;;;;;;7.20;1.70;;;;;;;;;;5109050;28;20054;-66
2021/11/01 16:37:12;;;;;;;7.47;2.17;;;;;;;;;;5103591;28;20102;-65
2021/11/01 16:42:28;;;;;;;8.82;2.53;;;;;;;;;;5112267;27;20355;-66
2021/11/01 16:44:55;;;;;;;9.35;2.13;;;;;;;;;;5110147;28;20059;-66
2021/11/01 16:47:21;;;;;;;7.03;2.35;;;;;;;;;;5111926;28;20016;-66
2021/11/01 16:49:49;;;;;;;6.63;1.98;;;;;;;;;;5111588;28;20020;-66
2021/11/01 16:52:18;;;;;;;5.63;2.35;;;;;;;;;;5110374;28;20035;-66
2021/11/01 16:55:04;;;;;;;5.13;2.00;;;;;;;;;;5111506;28;20103;-66
2021/11/01 16:57:40;;;;;;;5.68;1.73;;;;;;;;;;5111381;28;20073;-67
2021/11/01 17:00:20;;;;;;;7.20;2.13;;;;;;;;;;5111332;28;20052;-66
2021/11/01 17:02:53;;;;;;;7.80;2.58;;;;;;;;;;5111336;28;20065;-66
2021/11/01 17:05:29;;;;;;;7.60;3.08;;;;;;;;;;5111264;28;20020;-66
2021/11/01 17:08:26;;;;;;;8.63;2.67;;;;;;;;;;5111544;28;20035;-66
2021/11/01 17:22:12;;;;;;;9.13;3.55;;;;;;;;;;5110454;28;20500;-66
2021/11/01 17:24:43;;;;;;;5.07;3.00;;;;;;;;;;5110496;28;20055;-65
2021/11/01 17:27:27;;;;;;;4.68;3.00;;;;;;;;;;5111154;28;20019;-66
2021/11/01 17:30:35;;;;;;;7.10;3.65;;;;;;;;;;5109519;28;20024;-66
2021/11/01 18:37:27;;;;;;;7.53;2.60;;;;;;;;;;5095577;28;20028;-66
2021/11/01 18:39:44;;;;;;;7.45;3.25;;;;;;;;;;5095497;28;20524;-66
2021/11/01 18:45:12;;;;;;;9.38;3.47;;;;;;;;;;5112275;27;20385;-67
2021/11/01 18:51:03;;;;;;;15.77;5.80;;;;;;;;;;5111151;28;20537;-66
2021/11/01 18:53:14;;;;;;;15.95;6.72;;;;;;;;;;5111175;28;20023;-67
2021/11/01 18:55:43;;;;;;;10.75;5.28;;;;;;;;;;5110368;28;20032;-66
2021/11/01 18:58:12;;;;;;;15.00;6.22;;;;;;;;;;5109953;28;20114;-66
2021/11/01 19:00:42;;;;;;;11.00;5.65;;;;;;;;;;5111450;28;20020;-68
2021/11/01 19:03:09;;;;;;;14.48;6.10;;;;;;;;;;5111314;28;20028;-66
2021/11/01 19:06:19;;;;;;;9.13;4.88;;;;;;;;;;5111309;28;20526;-66
2021/11/01 19:08:38;;;;;;;13.30;5.30;;;;;;;;;;5110868;28;20052;-66
2021/11/01 19:11:52;;;;;;;12.10;4.22;;;;;;;;;;5109720;28;20024;-65
2021/11/01 20:04:11;;;;;;;8.00;3.60;;;7.60;99.90;;;;;;5096144;28;20024;-65
2021/11/01 20:07:12;;;;;;;9.18;4.30;;;7.60;99.90;;;;;;5096589;28;20016;-65
2021/11/01 20:12:19;;;;;;;11.82;4.28;;;7.70;99.90;;;;;;5071911;28;20391;-66
2021/11/01 21:27:21;;;;;;;12.02;5.10;;;6.50;99.90;;;;;;5056045;28;20101;-66
2021/11/01 21:29:47;;;;;;;11.38;5.03;;;6.50;99.90;;;;;;5056368;28;20044;-65
2021/11/01 21:32:13;;;;;;;8.88;4.47;;;6.50;99.90;;;;;;5056695;28;20029;-65
2021/11/01 21:34:42;;;;;;;12.88;5.03;;;6.50;99.90;;;;;;5056657;28;20458;-65
2021/11/01 21:37:09;;;;;;;10.32;4.90;;;6.40;99.90;;;;;;5056296;28;20032;-65
2021/11/01 21:39:36;;;;;;;11.35;4.70;;;6.40;99.90;;;;;;5055371;28;20120;-65
2021/11/01 21:42:02;;;;;;;11.18;4.30;;;6.40;99.90;;;;;;5055043;28;20036;-65
2021/11/01 21:44:31;;;;;;;12.02;4.60;;;6.40;99.90;;;;;;5056438;28;20151;-65
2021/11/01 21:46:58;;;;;;;11.15;5.15;;;6.40;99.90;;;;;;5038496;28;20074;-65
2021/11/01 21:49:23;;;;;;;9.43;4.03;;;6.40;99.90;;;;;;5056019;28;20115;-65
2021/11/01 21:51:51;;;;;;;17.67;4.32;;;6.40;99.90;;;;;;5055631;28;20155;-65
2021/11/01 21:54:26;;;;;;;12.00;4.50;;;6.50;99.90;;;;;;5055919;28;20033;-65
2021/11/01 21:56:58;;;;;;;9.82;4.60;;;6.50;99.90;;;;;;5054375;28;20021;-65
2021/11/01 21:59:44;;;;;;;9.02;4.47;;;6.50;99.90;;;;;;5055107;28;20033;-65
2021/11/01 22:18:46;;;;;;;10.25;4.45;;;6.30;99.90;;;;;;5054033;28;20026;-65
2021/11/01 22:21:20;;;;;;;10.20;4.50;;;6.30;99.90;;;;;;5053985;28;20083;-65
2021/11/01 22:24:00;;;;;;;11.40;4.32;;;6.30;99.90;;;;;;5054289;28;20100;-65
2021/11/01 22:26:47;;;;;;;9.50;4.28;;;6.30;99.90;;;;;;5053731;28;20150;-65
2021/11/01 22:40:17;;;;;;;11.38;4.70;;;6.30;99.90;;;;;;5053699;28;20048;-66
2021/11/01 22:42:47;;;;;;;12.55;4.50;;;6.30;99.90;;;;;;5054280;28;20414;-66
2021/11/01 22:45:18;;;;;;;11.10;4.53;;;6.20;99.90;;;;;;5055283;28;20049;-65
2021/11/01 22:56:38;;;;;;;8.68;4.10;;;6.40;99.90;;;;;;5054396;28;20080;-65
2021/11/01 22:58:48;;;;;;;10.75;3.70;;;6.30;99.90;;;;;;5053301;28;20513;-65
2021/11/01 23:01:23;;;;;;;10.73;4.25;;;6.30;99.90;;;;;;5054705;28;20029;-67
2021/11/01 23:04:28;;;;;;;9.07;3.97;;;6.30;99.90;;;;;;5053523;28;20111;-65
2021/11/01 23:31:45;;;;;;;9.27;3.90;;;6.30;99.90;;;;;;5053690;28;20596;-66
2021/11/01 23:34:05;;;;;;;6.45;3.95;;;6.30;99.90;;;;;;5053730;28;20021;-66
2021/11/01 23:36:32;;;;;;;12.38;4.50;;;6.40;99.90;;;;;;5054371;28;20071;-66
2021/11/01 23:38:58;;;;;;;9.88;4.07;;;6.50;99.90;;;;;;5054307;28;20025;-66
2021/11/01 23:41:24;;;;;;;11.23;4.10;;;6.50;99.90;;;;;;5054516;28;20108;-66
2021/11/01 23:43:50;;;;;;;12.32;4.43;;;6.60;99.90;;;;;;5052809;28;20548;-66
2021/11/01 23:46:17;;;;;;;9.85;4.13;;;6.60;99.90;;;;;;5052451;28;20032;-66
2021/11/01 23:48:43;;;;;;;10.85;5.35;;;6.70;99.90;;;;;;5054161;28;20029;-66
2021/11/01 23:51:10;;;;;;;17.10;4.80;;;6.80;99.90;;;;;;5053769;28;20036;-66
2021/11/01 23:53:43;;;;;;;11.20;5.13;;;6.90;99.90;;;;;;5053819;28;20029;-66
2021/11/01 23:56:11;;;;;;;11.02;4.13;;;7.00;99.90;;;;;;5053765;28;20074;-64
2021/11/01 23:58:38;;;;;;;9.82;4.10;;;7.10;99.90;;;;;;5054593;28;20051;-67
